sensor_id;sensor_type;location;lat;lon;timestamp;temperature;humidity
9265;DHT22;4669;49.594;10.958;2024-03-08T05:30:15;2.90;99.90
9265;DHT22;4669;49.594;10.958;2024-03-08T05:35:17;2.90;99.90
9265;DHT22;4669;49.594;10.958;2024-03-08T05:40:20;2.90;99.90
9265;DHT22;4669;49.594;10.958;2024-03-08T05:45:23;2.90;99.90
9265;DHT22;4669;49.594;10.958;2024-03-08T05:50:27;2.90;99.90
9265;DHT22;4669;49.594;10.958;2024-03-08T05:55:29;2.90;99.90
9265;DHT22;4669;49.594;10.958;2024-03-08T06:00:37;2.80;99.90
9265;DHT22;4669;49.594;10.958;2024-03-08T06:05:39;2.80;99.90
9265;DHT22;4669;49.594;10.958;2024-03-08T06:10:42;2.80;99.90
9265;DHT22;4669;49.594;10.958;2024-03-08T06:15:46;2.80;99.90
9265;DHT22;4669;49.594;10.958;2024-03-08T06:20:48;2.80;99.90
9265;DHT22;4669;49.594;10.958;2024-03-08T06:25:50;2.80;99.90
9265;DHT22;4669;49.594;10.958;2024-03-08T06:30:54;2.80;99.90
9265;DHT22;4669;49.594;10.958;2024-03-08T06:35:56;2.90;99.90
9265;DHT22;4669;49.594;10.958;2024-03-08T06:40:58;3.00;99.90
9265;DHT22;4669;49.594;10.958;2024-03-08T06:46:05;3.10;99.90
9265;DHT22;4669;49.594;10.958;2024-03-08T06:51:08;3.10;99.90
9265;DHT22;4669;49.594;10.958;2024-03-08T06:56:11;3.20;99.90
9265;DHT22;4669;49.594;10.958;2024-03-08T07:01:15;3.30;99.90
9265;DHT22;4669;49.594;10.958;2024-03-08T07:06:18;3.30;99.90
9265;DHT22;4669;49.594;10.958;2024-03-08T07:11:21;3.30;99.90
9265;DHT22;4669;49.594;10.958;2024-03-08T07:16:24;3.40;99.90
9265;DHT22;4669;49.594;10.958;2024-03-08T07:21:27;3.50;99.90
9265;DHT22;4669;49.594;10.958;2024-03-08T07:26:30;3.40;99.90
9265;DHT22;4669;49.594;10.958;2024-03-08T07:31:33;3.50;99.90
9265;DHT22;4669;49.594;10.958;2024-03-08T07:36:46;3.60;99.90
9265;DHT22;4669;49.594;10.958;2024-03-08T07:41:48;3.70;99.90
9265;DHT22;4669;49.594;10.958;2024-03-08T07:46:55;3.80;99.90
9265;DHT22;4669;49.594;10.958;2024-03-08T07:51:57;3.80;99.90
9265;DHT22;4669;49.594;10.958;2024-03-08T07:57:00;3.80;99.90
9265;DHT22;4669;49.594;10.958;2024-03-08T08:02:05;3.90;99.90
9265;DHT22;4669;49.594;10.958;2024-03-08T08:07:08;4.10;99.90
9265;DHT22;4669;49.594;10.958;2024-03-08T08:12:10;4.00;99.90
9265;DHT22;4669;49.594;10.958;2024-03-08T08:17:14;4.20;99.90
9265;DHT22;4669;49.594;10.958;2024-03-08T08:22:16;4.30;99.90
9265;DHT22;4669;49.594;10.958;2024-03-08T08:27:19;4.30;99.90
9265;DHT22;4669;49.594;10.958;2024-03-08T08:32:22;4.30;99.90
9265;DHT22;4669;49.594;10.958;2024-03-08T08:37:25;4.30;99.90
9265;DHT22;4669;49.594;10.958;2024-03-08T08:42:27;4.50;99.90
9265;DHT22;4669;49.594;10.958;2024-03-08T08:47:30;4.60;99.90
9265;DHT22;4669;49.594;10.958;2024-03-08T08:52:34;4.60;99.90
9265;DHT22;4669;49.594;10.958;2024-03-08T08:57:36;4.70;99.90
9265;DHT22;4669;49.594;10.958;2024-03-08T09:02:40;4.70;99.90
9265;DHT22;4669;49.594;10.958;2024-03-08T09:07:43;5.00;99.90
9265;DHT22;4669;49.594;10.958;2024-03-08T09:12:46;5.10;99.90
9265;DHT22;4669;49.594;10.958;2024-03-08T09:17:50;5.10;99.90
9265;DHT22;4669;49.594;10.958;2024-03-08T09:22:52;5.30;99.90
9265;DHT22;4669;49.594;10.958;2024-03-08T09:27:54;5.40;99.90
9265;DHT22;4669;49.594;10.958;2024-03-08T09:32:57;5.50;99.90
9265;DHT22;4669;49.594;10.958;2024-03-08T09:38:00;5.60;99.90
9265;DHT22;4669;49.594;10.958;2024-03-08T09:43:02;5.70;99.90
9265;DHT22;4669;49.594;10.958;2024-03-08T09:48:08;5.70;99.90
9265;DHT22;4669;49.594;10.958;2024-03-08T09:53:12;5.80;99.90
9265;DHT22;4669;49.594;10.958;2024-03-08T09:58:15;5.90;99.90
9265;DHT22;4669;49.594;10.958;2024-03-08T10:03:33;6.00;99.90
9265;DHT22;4669;49.594;10.958;2024-03-08T10:08:35;6.10;99.90
9265;DHT22;4669;49.594;10.958;2024-03-08T10:13:37;6.10;99.90
9265;DHT22;4669;49.594;10.958;2024-03-08T10:18:42;6.10;99.90
9265;DHT22;4669;49.594;10.958;2024-03-08T10:23:45;6.20;99.90
9265;DHT22;4669;49.594;10.958;2024-03-08T10:28:51;6.30;99.90
9265;DHT22;4669;49.594;10.958;2024-03-08T10:33:54;6.30;99.90
9265;DHT22;4669;49.594;10.958;2024-03-08T10:38:59;6.50;99.90
9265;DHT22;4669;49.594;10.958;2024-03-08T10:44:13;6.70;99.90
9265;DHT22;4669;49.594;10.958;2024-03-08T10:49:25;6.70;99.90
9265;DHT22;4669;49.594;10.958;2024-03-08T10:54:28;6.90;99.90
9265;DHT22;4669;49.594;10.958;2024-03-08T10:59:32;7.00;99.90
9265;DHT22;4669;49.594;10.958;2024-03-08T11:04:38;7.10;99.90
9265;DHT22;4669;49.594;10.958;2024-03-08T11:09:41;7.20;99.90
9265;DHT22;4669;49.594;10.958;2024-03-08T11:14:46;7.30;99.90
9265;DHT22;4669;49.594;10.958;2024-03-08T11:19:51;7.40;99.80
9265;DHT22;4669;49.594;10.958;2024-03-08T11:24:58;7.60;99.50
9265;DHT22;4669;49.594;10.958;2024-03-08T11:30:03;7.60;99.50
9265;DHT22;4669;49.594;10.958;2024-03-08T11:35:18;7.70;99.30
9265;DHT22;4669;49.594;10.958;2024-03-08T11:40:21;7.80;98.90
9265;DHT22;4669;49.594;10.958;2024-03-08T11:45:23;7.90;99.10
9265;DHT22;4669;49.594;10.958;2024-03-08T11:50:27;7.80;99.50
9265;DHT22;4669;49.594;10.958;2024-03-08T11:55:29;8.10;99.00
9265;DHT22;4669;49.594;10.958;2024-03-08T12:00:32;8.30;98.30
9265;DHT22;4669;49.594;10.958;2024-03-08T12:05:40;8.30;98.00
9265;DHT22;4669;49.594;10.958;2024-03-08T12:10:43;8.30;98.30
9265;DHT22;4669;49.594;10.958;2024-03-08T12:15:46;8.50;98.20
9265;DHT22;4669;49.594;10.958;2024-03-08T12:20:49;8.80;97.50
9265;DHT22;4669;49.594;10.958;2024-03-08T12:25:51;8.90;97.30
9265;DHT22;4669;49.594;10.958;2024-03-08T12:30:54;8.90;97.90
9265;DHT22;4669;49.594;10.958;2024-03-08T12:36:01;9.10;97.30
9265;DHT22;4669;49.594;10.958;2024-03-08T12:41:08;9.20;96.30
9265;DHT22;4669;49.594;10.958;2024-03-08T12:46:11;9.40;96.40
9265;DHT22;4669;49.594;10.958;2024-03-08T12:51:17;9.40;96.10
9265;DHT22;4669;49.594;10.958;2024-03-08T12:56:29;9.30;96.30
9265;DHT22;4669;49.594;10.958;2024-03-08T13:01:32;9.30;96.60
9265;DHT22;4669;49.594;10.958;2024-03-08T13:06:35;9.50;96.00
9265;DHT22;4669;49.594;10.958;2024-03-08T13:11:38;9.70;95.80
9265;DHT22;4669;49.594;10.958;2024-03-08T13:16:40;9.90;95.90
9265;DHT22;4669;49.594;10.958;2024-03-08T13:21:43;10.00;95.30
9265;DHT22;4669;49.594;10.958;2024-03-08T13:26:49;10.00;94.80
9265;DHT22;4669;49.594;10.958;2024-03-08T13:31:52;10.10;94.80
9265;DHT22;4669;49.594;10.958;2024-03-08T13:36:58;10.30;94.20
9265;DHT22;4669;49.594;10.958;2024-03-08T13:42:01;10.30;94.10
9265;DHT22;4669;49.594;10.958;2024-03-08T13:47:06;10.30;94.30
9265;DHT22;4669;49.594;10.958;2024-03-08T13:52:10;10.60;93.40
9265;DHT22;4669;49.594;10.958;2024-03-08T13:57:13;10.60;93.00
9265;DHT22;4669;49.594;10.958;2024-03-08T14:02:15;10.60;93.50
9265;DHT22;4669;49.594;10.958;2024-03-08T14:07:19;10.80;92.90
9265;DHT22;4669;49.594;10.958;2024-03-08T14:12:21;10.90;93.40
9265;DHT22;4669;49.594;10.958;2024-03-08T14:17:24;10.90;93.20
9265;DHT22;4669;49.594;10.958;2024-03-08T14:22:29;10.90;93.10
9265;DHT22;4669;49.594;10.958;2024-03-08T14:27:32;11.00;93.30
9265;DHT22;4669;49.594;10.958;2024-03-08T14:32:34;11.10;93.30
9265;DHT22;4669;49.594;10.958;2024-03-08T14:37:40;11.20;92.90
9265;DHT22;4669;49.594;10.958;2024-03-08T14:42:44;11.30;92.40
9265;DHT22;4669;49.594;10.958;2024-03-08T14:47:46;11.30;92.40
9265;DHT22;4669;49.594;10.958;2024-03-08T14:52:52;11.40;91.90
9265;DHT22;4669;49.594;10.958;2024-03-08T14:57:55;11.40;92.10
9265;DHT22;4669;49.594;10.958;2024-03-08T15:02:57;11.40;92.30
9265;DHT22;4669;49.594;10.958;2024-03-08T15:08:00;11.40;92.60
9265;DHT22;4669;49.594;10.958;2024-03-08T15:13:03;11.50;92.50
9265;DHT22;4669;49.594;10.958;2024-03-08T15:18:15;11.70;92.00
9265;DHT22;4669;49.594;10.958;2024-03-08T15:23:18;11.70;92.30
9265;DHT22;4669;49.594;10.958;2024-03-08T15:28:21;11.60;92.60
9265;DHT22;4669;49.594;10.958;2024-03-08T15:33:31;11.70;92.30
9265;DHT22;4669;49.594;10.958;2024-03-08T15:38:34;11.70;91.80
9265;DHT22;4669;49.594;10.958;2024-03-08T15:43:37;11.50;92.20
9265;DHT22;4669;49.594;10.958;2024-03-08T15:48:40;11.40;92.10
9265;DHT22;4669;49.594;10.958;2024-03-08T15:53:44;11.50;92.60
9265;DHT22;4669;49.594;10.958;2024-03-08T15:58:53;11.20;93.20
9265;DHT22;4669;49.594;10.958;2024-03-08T16:03:56;10.80;93.80
9265;DHT22;4669;49.594;10.958;2024-03-08T16:09:00;10.40;94.10
9265;DHT22;4669;49.594;10.958;2024-03-08T16:14:05;10.10;94.60
9265;DHT22;4669;49.594;10.958;2024-03-08T16:19:11;9.90;95.00
9265;DHT22;4669;49.594;10.958;2024-03-08T16:24:16;9.80;95.20
9265;DHT22;4669;49.594;10.958;2024-03-08T16:29:19;9.70;95.30
9265;DHT22;4669;49.594;10.958;2024-03-08T16:34:22;9.50;95.60
9265;DHT22;4669;49.594;10.958;2024-03-08T16:39:26;9.40;95.90
9265;DHT22;4669;49.594;10.958;2024-03-08T16:44:29;9.20;96.30
9265;DHT22;4669;49.594;10.958;2024-03-08T16:49:32;9.00;96.70
9265;DHT22;4669;49.594;10.958;2024-03-08T16:54:35;8.90;96.60
9265;DHT22;4669;49.594;10.958;2024-03-08T16:59:38;9.00;96.50
9265;DHT22;4669;49.594;10.958;2024-03-08T17:04:41;8.80;96.90
9265;DHT22;4669;49.594;10.958;2024-03-08T17:09:44;8.70;97.20
9265;DHT22;4669;49.594;10.958;2024-03-08T17:14:46;8.70;96.90
9265;DHT22;4669;49.594;10.958;2024-03-08T17:19:49;8.50;97.00
9265;DHT22;4669;49.594;10.958;2024-03-08T17:24:53;8.50;97.20
9265;DHT22;4669;49.594;10.958;2024-03-08T17:29:55;8.40;97.30
9265;DHT22;4669;49.594;10.958;2024-03-08T17:34:58;8.40;97.20
9265;DHT22;4669;49.594;10.958;2024-03-08T17:40:03;8.30;97.30
9265;DHT22;4669;49.594;10.958;2024-03-08T17:45:09;8.30;97.30
9265;DHT22;4669;49.594;10.958;2024-03-08T17:50:14;8.10;97.50
9265;DHT22;4669;49.594;10.958;2024-03-08T17:55:18;8.10;97.50
9265;DHT22;4669;49.594;10.958;2024-03-08T18:00:22;8.10;97.40
9265;DHT22;4669;49.594;10.958;2024-03-08T18:05:29;8.00;97.70
9265;DHT22;4669;49.594;10.958;2024-03-08T18:10:35;8.00;97.50
9265;DHT22;4669;49.594;10.958;2024-03-08T18:15:37;7.90;97.60
9265;DHT22;4669;49.594;10.958;2024-03-08T18:20:40;7.80;97.60
9265;DHT22;4669;49.594;10.958;2024-03-08T18:25:49;7.80;97.70
9265;DHT22;4669;49.594;10.958;2024-03-08T18:30:52;7.80;97.70
9265;DHT22;4669;49.594;10.958;2024-03-08T18:35:55;7.70;97.80
9265;DHT22;4669;49.594;10.958;2024-03-08T18:41:00;7.60;97.90
9265;DHT22;4669;49.594;10.958;2024-03-08T18:46:03;7.60;97.90
9265;DHT22;4669;49.594;10.958;2024-03-08T18:51:06;7.50;98.00
9265;DHT22;4669;49.594;10.958;2024-03-08T18:56:10;7.50;98.00
9265;DHT22;4669;49.594;10.958;2024-03-08T19:01:15;7.40;98.10
9265;DHT22;4669;49.594;10.958;2024-03-08T19:06:23;7.40;98.30
9265;DHT22;4669;49.594;10.958;2024-03-08T19:11:33;7.30;98.30
9265;DHT22;4669;49.594;10.958;2024-03-08T19:16:35;7.30;98.30
9265;DHT22;4669;49.594;10.958;2024-03-08T19:21:41;7.30;98.50
9265;DHT22;4669;49.594;10.958;2024-03-08T19:26:47;7.10;98.60
9265;DHT22;4669;49.594;10.958;2024-03-08T19:31:49;7.00;98.80
9265;DHT22;4669;49.594;10.958;2024-03-08T19:36:52;7.00;98.80
9265;DHT22;4669;49.594;10.958;2024-03-08T19:41:56;7.00;98.90
9265;DHT22;4669;49.594;10.958;2024-03-08T19:46:59;6.90;99.00
9265;DHT22;4669;49.594;10.958;2024-03-08T19:52:03;6.90;99.00
9265;DHT22;4669;49.594;10.958;2024-03-08T19:57:09;6.80;99.20
9265;DHT22;4669;49.594;10.958;2024-03-08T20:02:11;6.80;99.30
9265;DHT22;4669;49.594;10.958;2024-03-08T20:07:13;6.70;99.40
9265;DHT22;4669;49.594;10.958;2024-03-08T20:12:19;6.70;99.30
9265;DHT22;4669;49.594;10.958;2024-03-08T20:17:22;6.70;99.50
9265;DHT22;4669;49.594;10.958;2024-03-08T20:22:26;6.60;99.60
9265;DHT22;4669;49.594;10.958;2024-03-08T20:27:30;6.50;99.80
9265;DHT22;4669;49.594;10.958;2024-03-08T20:32:34;6.40;99.90
9265;DHT22;4669;49.594;10.958;2024-03-08T20:37:39;6.50;99.90
9265;DHT22;4669;49.594;10.958;2024-03-08T20:42:43;6.40;99.90
9265;DHT22;4669;49.594;10.958;2024-03-08T20:47:46;6.40;99.90
9265;DHT22;4669;49.594;10.958;2024-03-08T20:52:49;6.30;99.90
9265;DHT22;4669;49.594;10.958;2024-03-08T20:57:52;6.30;99.90
9265;DHT22;4669;49.594;10.958;2024-03-08T21:02:55;6.30;99.90
9265;DHT22;4669;49.594;10.958;2024-03-08T21:07:57;6.20;99.90
9265;DHT22;4669;49.594;10.958;2024-03-08T21:13:02;6.20;99.90
9265;DHT22;4669;49.594;10.958;2024-03-08T21:18:05;6.20;99.90
9265;DHT22;4669;49.594;10.958;2024-03-08T21:23:09;6.30;99.90
9265;DHT22;4669;49.594;10.958;2024-03-08T21:28:13;6.20;99.90
9265;DHT22;4669;49.594;10.958;2024-03-08T21:33:18;6.40;99.90
9265;DHT22;4669;49.594;10.958;2024-03-08T21:38:22;6.30;99.90
9265;DHT22;4669;49.594;10.958;2024-03-08T21:43:27;6.10;99.90
9265;DHT22;4669;49.594;10.958;2024-03-08T21:48:30;6.00;99.90
9265;DHT22;4669;49.594;10.958;2024-03-08T21:53:33;6.00;99.90
9265;DHT22;4669;49.594;10.958;2024-03-08T21:58:39;5.90;99.90
9265;DHT22;4669;49.594;10.958;2024-03-08T22:03:42;5.90;99.90
9265;DHT22;4669;49.594;10.958;2024-03-08T22:08:44;5.80;99.90
9265;DHT22;4669;49.594;10.958;2024-03-08T22:13:48;5.70;99.90
9265;DHT22;4669;49.594;10.958;2024-03-08T22:18:50;5.70;99.90
9265;DHT22;4669;49.594;10.958;2024-03-08T22:23:54;5.70;99.90
9265;DHT22;4669;49.594;10.958;2024-03-08T22:28:58;5.70;99.90
9265;DHT22;4669;49.594;10.958;2024-03-08T22:34:00;5.60;99.90
9265;DHT22;4669;49.594;10.958;2024-03-08T22:39:02;5.50;99.90
9265;DHT22;4669;49.594;10.958;2024-03-08T22:44:12;5.50;99.90
9265;DHT22;4669;49.594;10.958;2024-03-08T22:49:15;5.50;99.90
9265;DHT22;4669;49.594;10.958;2024-03-08T22:54:17;5.50;99.90
9265;DHT22;4669;49.594;10.958;2024-03-08T22:59:25;5.50;99.90
